Portada
METAR-TAF:

METAR-TAF

Aeroports :

Khurramabad, Iran

latitud: 33-26-11N, longitud: 048-17-09E, altitud: 1155 m

Observació

L'informe es va fer fa 1 hora i 13 minuts, a les 22:50 UTC
Vent 4 kt del Sud/Sud-Est
Temperatura 22°C
Humitat 33%
Pressió 1007 hPa
Visibilitat 10 km o més
sense núvols per sota de 1500 mi sense presència de cumulonimbus.

METAR: OICK 152250Z 15004KT CAVOK 22/05 Q1007

Hora: 04:33 (00:03 UTC)


TAF: manca

Observacions i pronòstics meteorològics de més de 4000 aeroports (METAR i TAF).

Les estacions disponibles són els punts grocs i vermells al mapa.

Posi el ratolí al punt desitjat per veure el nom de l'estació.

Feu clic per veure les observacions i els pronòstics meteorològics.

Per canviar el mapa: feu clic els botons verds amb una creu de color negre per apropar; al botó verd amb un guió per allunyar la imatge; o en les fletxes verdes per a mapes adjacents.


METAR-TAF: